• Join FlightAware (Why Join?)
  • Login
  • US Flag 
04:03PM EDT


 

Airport Tracker/Info


-or-


 

Live Flight TrackerFlight Track Log ✈ UAL1202 ✈ 15-Jun-2013 ✈ KLAX - KORD

Flight Track Log - Related Links

Times and Time Zones

All times are in EDT time to prevent confusion due to time zone crossing. See the UAL1202 flight status page for this flight to view local times or setup timezone preferences in your user account.

Time Position Orientation Groundspeed Altitude Reporting Facility
EDT Latitude Longitude Course Direction KTS MPH feet Rate Location/Type
03:05AM 33.9319 -118.4389 222° Southwest 173 199 1,500  Level Los Angeles Center
03:06AM 33.8803 -118.4950 222° Southwest 233 268 3,900 2,280 Climbing Los Angeles Center
03:07AM 33.8183 -118.5139 194° South 274 315 6,100 2,640 Climbing Los Angeles Center
03:08AM 33.7403 -118.5178 182° South 284 327 9,300 2,460 Climbing Los Angeles Center
03:09AM 33.6783 -118.4181 127° Southeast 326 375 11,100 1,680 Climbing Los Angeles Center
03:10AM 33.6628 -118.2978 99° East 394 453 12,700 1,800 Climbing Los Angeles Center
03:11AM 33.7219 -118.1814 59° Northeast 423 487 14,800 2,100 Climbing Los Angeles Center
03:12AM 33.7850 -118.0603 58° Northeast 434 499 17,000 1,980 Climbing Los Angeles Center
03:13AM 33.8806 -117.9672 39° Northeast 447 514 18,900 1,740 Climbing Los Angeles Center
03:14AM 33.9808 -117.8767 37° Northeast 453 521 20,600 1,680 Climbing Los Angeles Center
03:15AM 34.0853 -117.7803 37° Northeast 471 542 22,300 1,620 Climbing Los Angeles Center
03:16AM 34.1767 -117.6614 47° Northeast 482 555 23,900 1,440 Climbing Los Angeles Center
03:17AM 34.2514 -117.5211 57° Northeast 500 575 25,200 1,200 Climbing Los Angeles Center
03:18AM 34.3192 -117.3700 61° Northeast 510 587 26,400 1,380 Climbing Los Angeles Center
03:19AM 34.3917 -117.2111 61° Northeast 517 595 28,000 1,440 Climbing Los Angeles Center
03:20AM 34.4608 -117.0578 61° Northeast 520 598 29,400 1,260 Climbing Los Angeles Center
03:21AM 34.5303 -116.9039 61° Northeast 523 602 30,600 1,200 Climbing Los Angeles Center
03:22AM 34.5983 -116.7494 62° Northeast 523 602 31,800 1,080 Climbing Los Angeles Center
03:23AM 34.6683 -116.5944 61° Northeast 524 603 32,800 1,080 Climbing Los Angeles Center
03:24AM 34.7372 -116.4358 62° Northeast 530 610 34,000 1,080 Climbing Los Angeles Center
03:25AM 34.8067 -116.2778 62° Northeast 532 612 35,000 1,020 Climbing Los Angeles Center
03:26AM 34.8797 -116.1189 61° Northeast 536 617 36,100 900 Climbing Los Angeles Center
03:27AM 34.9492 -115.9603 62° Northeast 535 616 36,900 420 Climbing Los Angeles Center
03:28AM 35.0333 -115.7692 62° Northeast 534 615 37,000  Climbing Los Angeles Center
03:29AM 35.1031 -115.6092 62° Northeast 536 617 37,000  Level Los Angeles Center
03:30AM 35.1719 -115.4486 62° Northeast 536 617 37,000  Level Los Angeles Center
03:31AM 35.2403 -115.2864 63° Northeast 532 612 37,000  Level Los Angeles Center
03:32AM 35.3100 -115.1297 61° Northeast 528 608 37,000  Level Los Angeles Center
03:33AM 35.3792 -114.9689 62° Northeast 531 611 37,000  Level Los Angeles Center
03:34AM 35.4600 -114.7719 63° Northeast 536 617 37,000  Level Los Angeles Center
03:35AM 35.5275 -114.6131 62° Northeast 534 615 37,000  Level Los Angeles Center
03:36AM 35.5947 -114.4536 63° Northeast 531 611 37,000  Level Los Angeles Center
03:37AM 35.6625 -114.2931 63° Northeast 530 610 37,000  Level Los Angeles Center
03:38AM 35.7289 -114.1306 63° Northeast 533 613 37,000  Level Los Angeles Center
03:39AM 35.7964 -113.9689 63° Northeast 533 613 37,000  Level Los Angeles Center
03:40AM 35.8628 -113.8056 63° Northeast 534 615 37,000  Level Los Angeles Center
03:42AM 35.9300 -113.6425 63° Northeast 535 616 37,000  Level Los Angeles Center
03:43AM 35.9964 -113.4786 63° Northeast 535 616 37,000  Level Los Angeles Center
03:44AM 36.0633 -113.3150 63° Northeast 536 617 37,000  Level Los Angeles Center
03:45AM 36.1308 -113.1467 64° Northeast 532 612 37,000  Level Los Angeles Center
03:46AM 36.1961 -112.9825 64° Northeast 533 613 37,000  Level Los Angeles Center
03:47AM 36.2619 -112.8192 63° Northeast 534 615 37,000  Level Los Angeles Center
03:48AM 36.3275 -112.6561 63° Northeast 533 613 37,000  Level Los Angeles Center
03:49AM 36.3922 -112.4917 64° Northeast 533 613 37,000  Level Los Angeles Center
03:50AM 36.4575 -112.3278 64° Northeast 533 613 37,000  Level Los Angeles Center
03:51AM 36.5236 -112.1614 64° Northeast 537 618 37,000  Level Los Angeles Center
03:52AM 36.5872 -111.9958 64° Northeast 536 617 37,000  Level Los Angeles Center
03:53AM 36.6522 -111.8297 64° Northeast 536 617 37,000  Level Los Angeles Center
03:54AM 36.7158 -111.6650 64° Northeast 534 615 37,000  Level Los Angeles Center
03:55AM 36.7789 -111.5025 64° Northeast 531 611 37,000  Level Los Angeles Center
03:56AM 36.8550 -111.3033 64° Northeast 531 611 37,000  Level Los Angeles Center
03:57AM 36.9147 -111.1400 65° Northeast 526 605 37,000  Level Los Angeles Center
03:58AM 36.9772 -110.9744 65° Northeast 529 609 37,000  Level Denver Center
03:59AM 37.0406 -110.8083 64° Northeast 531 611 37,000  Level Denver Center
04:00AM 37.1019 -110.6397 65° Northeast 532 612 37,000  Level Denver Center
04:01AM 37.1650 -110.4728 65° Northeast 532 612 37,000  Level Denver Center
04:02AM 37.2267 -110.3056 65° Northeast 531 611 37,000  Level Denver Center
04:03AM 37.2900 -110.1339 65° Northeast 532 612 37,000  Level Denver Center
04:04AM 37.3583 -109.9444 66° East 532 612 37,000  Level Denver Center
04:05AM 37.4189 -109.7822 65° Northeast 535 616 37,000  Level Denver Center
04:06AM 37.4764 -109.6206 66° East 529 609 37,000  Level Denver Center
04:07AM 37.5439 -109.4319 66° East 529 609 37,000  Level Denver Center
04:08AM 37.6019 -109.2711 65° Northeast 527 606 37,000  Level Denver Center
04:09AM 37.6581 -109.1078 67° East 526 605 37,000  Level Denver Center
04:10AM 37.7172 -108.9464 65° Northeast 528 608 37,000  Level Denver Center
04:11AM 37.7833 -108.7539 66° East 530 610 37,000  Level Denver Center
04:12AM 37.8406 -108.5900 66° East 532 612 37,000  Level Denver Center
04:13AM 37.8969 -108.4281 66° East 528 608 37,000  Level Denver Center
04:14AM 37.9639 -108.2350 66° East 532 612 37,000  Level Denver Center
04:15AM 38.0186 -108.0694 67° East 533 613 37,000  Level Denver Center
04:16AM 38.0747 -107.9078 66° East 531 611 37,000  Level Denver Center
04:17AM 38.1392 -107.7150 67° East 532 612 37,000  Level Denver Center
04:18AM 38.1942 -107.5508 67° East 530 610 37,000  Level Denver Center
04:19AM 38.2492 -107.3875 67° East 527 606 37,000  Level Denver Center
04:20AM 38.3039 -107.2231 67° East 529 609 37,000  Level Denver Center
04:21AM 38.3575 -107.0642 67° East 523 602 37,000  Level Denver Center
04:22AM 38.4139 -106.8906 67° East 531 611 37,000  Level Denver Center
04:23AM 38.4811 -106.6839 67° East 529 609 37,000  Level Denver Center
04:24AM 38.5375 -106.5106 67° East 529 609 37,000  Level Denver Center
04:25AM 38.5928 -106.3364 68° East 531 611 37,000  Level Denver Center
04:26AM 38.6517 -106.1581 67° East 536 617 37,000  Level Denver Center
04:27AM 38.6967 -106.0117 68° East 532 612 37,000  Level Denver Center
04:28AM 38.7642 -105.8008 68° East 534 615 37,000  Level Denver Center
04:29AM 38.8078 -105.6628 68° East 528 608 37,000  Level Denver Center
04:30AM 38.8725 -105.4547 68° East 527 606 37,000  Level Denver Center
04:31AM 38.9261 -105.2814 68° East 526 605 37,000  Level Denver Center
04:32AM 38.9792 -105.1083 68° East 524 603 37,000  Level Denver Center
04:33AM 39.0328 -104.9336 68° East 530 610 37,000  Level Denver Center
04:34AM 39.0867 -104.7597 68° East 530 610 37,000  Level Denver Center
04:35AM 39.1397 -104.5853 69° East 530 610 37,000  Level Denver Center
04:36AM 39.1922 -104.4100 69° East 530 610 37,000  Level Denver Center
04:37AM 39.2444 -104.2331 69° East 534 615 37,000  Level Denver Center
04:38AM 39.2969 -104.0581 69° East 530 610 37,000  Level Denver Center
04:39AM 39.3486 -103.8836 69° East 526 605 37,000  Level Denver Center
04:40AM 39.4000 -103.7058 69° East 529 609 37,000  Level Denver Center
04:41AM 39.4531 -103.5272 69° East 534 615 37,000 -300 Level Denver Center
04:42AM 39.5042 -103.3483 70° East 534 615 36,400 -780 Descending Denver Center
04:43AM 39.5561 -103.1711 69° East 530 610 35,500 -960 Descending Denver Center
04:44AM 39.6053 -102.9942 70° East 525 604 34,500 -960 Descending Denver Center
04:45AM 39.6556 -102.8150 70° East 529 609 33,600 -960 Descending Denver Center
04:46AM 39.7083 -102.6283 70° East 530 610 32,600 -1,080 Descending Denver Center
04:47AM 39.7647 -102.4264 70° East 533 613 31,500 -1,020 Descending Denver Center
04:48AM 39.8131 -102.2525 70° East 533 613 30,600 -900 Descending Denver Center
04:49AM 39.8611 -102.0767 70° East 539 620 29,700 -840 Descending Denver Center
04:50AM 39.9175 -101.8706 70° East 541 623 29,000 -360 Descending Denver Center
04:51AM 39.9658 -101.6953 70° East 539 620 29,000  Level Denver Center
04:52AM 40.0125 -101.5194 71° East 540 621 29,000  Level Denver Center
04:53AM 40.0594 -101.3456 71° East 534 615 29,000  Level Denver Center
04:54AM 40.1139 -101.1389 71° East 541 623 29,000  Level Denver Center
04:55AM 40.1603 -100.9631 71° East 539 620 29,000  Level Denver Center
04:56AM 40.2061 -100.7844 71° East 543 625 29,000  Level Denver Center
04:57AM 40.2600 -100.5778 71° East 542 624 29,000  Level Denver Center
04:58AM 40.3064 -100.3989 71° East 544 626 29,000  Level Denver Center
04:59AM 40.3517 -100.2206 72° East 544 626 29,000  Level Denver Center
05:00AM 40.4044 -100.0131 71° East 541 623 29,000  Level Denver Center
05:01AM 40.4506 -99.8311 72° East 539 620 29,000  Level Denver Center
05:02AM 40.4969 -99.6447 72° East 538 619 29,000  Level Denver Center
05:03AM 40.5428 -99.4578 72° East 538 619 29,000  Level Denver Center
05:04AM 40.5894 -99.2733 72° East 538 619 29,000  Level Minneapolis Center
05:05AM 40.6344 -99.0883 72° East 536 617 29,000  Level Minneapolis Center
05:06AM 40.6792 -98.9019 72° East 537 618 29,000  Level Minneapolis Center
05:07AM 40.7231 -98.7147 73° East 540 621 29,000  Level Minneapolis Center
05:08AM 40.7669 -98.5314 72° East 539 620 29,000  Level Minneapolis Center
05:09AM 40.8211 -98.3031 73° East 540 621 29,000  Level Minneapolis Center
05:10AM 40.8650 -98.1144 73° East 541 623 29,000  Level Minneapolis Center
05:11AM 40.9086 -97.9258 73° East 541 623 29,000  Level Minneapolis Center
05:12AM 40.9517 -97.7356 73° East 541 623 29,000  Level Minneapolis Center
05:13AM 40.9950 -97.5456 73° East 542 624 29,000  Level Minneapolis Center
05:14AM 41.0378 -97.3514 74° East 544 626 29,000  Level Minneapolis Center
05:15AM 41.0817 -97.1611 73° East 542 624 29,000  Level Minneapolis Center
05:16AM 41.1247 -96.9706 73° East 540 621 29,000  Level Minneapolis Center
05:17AM 41.1664 -96.7803 74° East 538 619 29,000  Level Minneapolis Center
05:18AM 41.2072 -96.5900 74° East 538 619 29,000  Level Minneapolis Center
05:19AM 41.2492 -96.3997 74° East 539 620 29,000  Level Minneapolis Center
05:20AM 41.2886 -96.2119 74° East 535 616 29,000  Level Minneapolis Center
05:21AM 41.3289 -96.0217 74° East 535 616 29,000  Level Minneapolis Center
05:22AM 41.3692 -95.8314 74° East 534 615 29,000  Level Minneapolis Center
05:23AM 41.4133 -95.6194 74° East 532 612 29,000  Level Minneapolis Center
05:25AM 41.4611 -95.3903 74° East 536 617 29,000  Level Minneapolis Center
05:26AM 41.5003 -95.2017 74° East 531 611 29,000  Level Minneapolis Center
05:27AM 41.5381 -95.0103 75° East 535 616 29,000  Level Minneapolis Center
05:28AM 41.5761 -94.8219 75° East 527 606 29,000  Level Minneapolis Center
05:29AM 41.6133 -94.6333 75° East 526 605 29,000  Level Minneapolis Center
05:30AM 41.6506 -94.4447 75° East 526 605 29,000  Level Minneapolis Center
05:31AM 41.6878 -94.2533 75° East 530 610 29,000  Level Minneapolis Center
05:32AM 41.7256 -94.0631 75° East 530 610 29,000  Level Minneapolis Center
05:33AM 41.7611 -93.8694 76° East 532 612 29,000  Level Minneapolis Center
05:34AM 41.7953 -93.6922 75° East 531 611 29,000  Level Minneapolis Center
05:35AM 41.8308 -93.4975 76° East 537 618 29,000  Level Minneapolis Center
05:36AM 41.8692 -93.2994 75° East 545 627 29,000  Level Minneapolis Center
05:37AM 41.9050 -93.1053 76° East 543 625 29,000  Level Minneapolis Center
05:38AM 41.9397 -92.9100 76° East 541 623 29,000  Level Minneapolis Center
05:38AM 41.9550 -92.8231 77° East 540 621 29,000  Level Chicago Center
05:39AM 41.9897 -92.6294 76° East 539 620 29,000  Level Chicago Center
05:40AM 42.0236 -92.4358 77° East 539 620 29,000  Level Chicago Center
05:41AM 42.0583 -92.2414 76° East 541 623 29,000  Level Chicago Center
05:42AM 42.0917 -92.0478 77° East 540 621 29,000  Level Chicago Center
05:43AM 42.1253 -91.8517 77° East 544 626 29,000  Level Chicago Center
05:44AM 42.1594 -91.6561 77° East 545 627 29,000  Level Chicago Center
05:45AM 42.1914 -91.4614 77° East 544 626 29,000  Level Chicago Center
05:46AM 42.2233 -91.2678 77° East 540 621 29,000  Level Chicago Center
05:47AM 42.2622 -91.0333 77° East 542 624 29,000  Level Chicago Center
05:48AM 42.2928 -90.8406 78° East 535 616 29,000 -660 Level Chicago Center
05:49AM 42.3242 -90.6464 78° East 536 617 27,700 -1,740 Descending Chicago Center
05:50AM 42.3519 -90.4617 78° East 513 590 25,600 -1,620 Descending Chicago Center
05:51AM 42.3794 -90.2844 78° East 491 565 24,500 -840 Descending Chicago Center
05:52AM 42.3881 -90.1050 86° East 483 556 24,000 -300 Descending Chicago Center
05:53AM 42.3917 -89.9075 89° East 483 556 24,000  Level Chicago Center
05:54AM 42.3972 -89.7281 88° East 478 550 24,000 -60 Level Chicago Center
05:55AM 42.4017 -89.5475 88° East 480 552 23,900 -1,200 Descending Chicago Center
05:56AM 42.4056 -89.3706 88° East 473 544 21,600 -2,340 Descending Chicago Center
05:57AM 42.4092 -89.2033 88° East 451 519 19,200 -2,340 Descending Chicago Center
05:58AM 42.4125 -89.0403 88° East 435 501 16,900 -2,220 Descending Chicago Center
05:59AM 42.4025 -88.8847 95° East 416 479 14,800 -2,040 Descending Chicago Center
06:00AM 42.3917 -88.7344 96° East 404 465 12,800 -2,220 Descending Chicago Center
06:01AM 42.3811 -88.5908 96° East 388 447 10,400 -1,440 Descending Chicago Center
06:02AM 42.3614 -88.4533 101° East 370 426 10,000 -240 Descending Chicago Center
06:03AM 42.3111 -88.3378 120° Southeast 366 421 10,000  Level Chicago Center
06:04AM 42.2617 -88.2158 119° Southeast 369 425 10,000 -60 Level Chicago Center
06:05AM 42.2147 -88.0908 117° Southeast 373 429 9,900 -360 Descending Chicago Center
06:06AM 42.1800 -87.9831 113° Southeast 326 375 9,300 -1,020 Descending Chicago Center
06:07AM 42.1553 -87.8758 107° East 303 349 7,900 -1,440 Descending Chicago Center
06:08AM 42.1275 -87.7703 110° East 300 345 6,500 -1,380 Descending Chicago Center
06:09AM 42.1003 -87.6669 110° East 296 341 5,200 -1,020 Descending Chicago Center
06:10AM 42.0364 -87.6275 155° Southeast 268 308 4,500 -840 Descending Chicago Center
06:11AM 41.9894 -87.6753 217° Southwest 230 265 3,600 -900 Descending Chicago Center